Time;durP1;ratioP1;P1;durP2;ratioP2;P2;SDS_P1;SDS_P2;PMS_P1;PMS_P2;Temp;Humidity;BMP_temperature;BMP_pressure;BME280_temperature;BME280_humidity;BME280_pressure;Samples;Min_cycle;Max_cycle;Signal;HPM_P1;HPM_P2
2021/11/16 00:02:24;;;;;;;66.27;30.77;;;5.60;99.90;;;;;;5113473;28;20708;-68
2021/11/16 00:04:51;;;;;;;61.53;30.03;;;5.60;99.90;;;;;;5113034;28;20211;-68
2021/11/16 00:07:19;;;;;;;65.27;32.47;;;5.60;99.90;;;;;;5112930;28;20208;-68
2021/11/16 00:09:45;;;;;;;70.73;32.90;;;5.60;99.90;;;;;;5113017;28;20193;-68
2021/11/16 00:12:13;;;;;;;65.37;32.03;;;5.60;99.90;;;;;;5113772;28;20216;-68
2021/11/16 00:14:41;;;;;;;65.23;31.60;;;5.60;99.90;;;;;;5113399;28;20209;-68
2021/11/16 00:17:08;;;;;;;61.77;30.50;;;5.60;99.90;;;;;;5113189;28;20189;-68
2021/11/16 00:19:37;;;;;;;70.60;30.93;;;5.60;99.90;;;;;;5104965;28;20672;-68
2021/11/16 00:22:04;;;;;;;59.83;29.10;;;5.60;99.90;;;;;;5112962;28;20197;-68
2021/11/16 00:24:37;;;;;;;66.37;30.70;;;5.50;99.90;;;;;;5113237;28;20211;-68
2021/11/16 00:27:06;;;;;;;70.03;29.63;;;5.60;99.90;;;;;;5112491;28;20200;-68
2021/11/16 00:29:33;;;;;;;68.10;31.83;;;5.60;99.90;;;;;;5112732;28;20205;-68
2021/11/16 00:32:00;;;;;;;69.27;30.57;;;5.60;99.90;;;;;;5111666;28;20514;-68
2021/11/16 00:34:27;;;;;;;71.73;30.13;;;5.50;99.90;;;;;;5105607;28;20206;-68
2021/11/16 00:36:55;;;;;;;67.63;31.40;;;5.50;99.90;;;;;;5101094;28;20556;-68
2021/11/16 00:39:22;;;;;;;78.80;35.60;;;5.50;99.90;;;;;;5111304;28;20201;-68
2021/11/16 00:41:49;;;;;;;68.63;31.73;;;5.50;99.90;;;;;;5112780;28;20189;-68
2021/11/16 00:44:16;;;;;;;68.03;33.00;;;5.60;99.90;;;;;;5112462;28;20193;-68
2021/11/16 00:46:43;;;;;;;67.63;30.87;;;5.60;99.90;;;;;;5112223;28;20549;-68
2021/11/16 00:49:10;;;;;;;67.53;32.50;;;5.60;99.90;;;;;;5099751;28;20210;-68
2021/11/16 00:51:37;;;;;;;60.87;28.77;;;5.60;99.90;;;;;;5099279;28;20675;-68
2021/11/16 00:54:06;;;;;;;62.80;28.93;;;5.60;99.90;;;;;;5111875;28;20193;-68
2021/11/16 00:56:32;;;;;;;62.23;29.43;;;5.60;99.90;;;;;;5113240;28;20265;-68
2021/11/16 00:58:59;;;;;;;67.30;28.73;;;5.60;99.90;;;;;;5111214;28;20203;-68
2021/11/16 01:01:26;;;;;;;65.17;29.07;;;5.60;99.90;;;;;;5109989;28;20289;-68
2021/11/16 01:03:54;;;;;;;63.47;29.93;;;5.50;99.90;;;;;;5097420;28;20223;-68
2021/11/16 01:06:20;;;;;;;63.70;30.37;;;5.50;99.90;;;;;;5092700;28;20216;-68
2021/11/16 01:08:47;;;;;;;62.53;29.83;;;5.50;99.90;;;;;;5095200;28;20208;-68
2021/11/16 01:11:15;;;;;;;64.70;31.23;;;5.50;99.90;;;;;;5102236;28;20212;-68
2021/11/16 01:13:42;;;;;;;64.67;30.77;;;5.60;99.90;;;;;;5112046;28;20295;-68
2021/11/16 01:16:10;;;;;;;62.87;29.70;;;5.50;99.90;;;;;;5112570;28;20584;-68
2021/11/16 01:18:38;;;;;;;57.00;27.13;;;5.50;99.90;;;;;;5111962;28;20208;-71
2021/11/16 01:21:05;;;;;;;61.43;29.43;;;5.50;99.90;;;;;;5112391;28;20574;-74
2021/11/16 01:23:32;;;;;;;65.93;31.60;;;5.50;99.90;;;;;;5112414;28;20548;-75
2021/11/16 01:26:01;;;;;;;65.67;29.50;;;5.50;99.90;;;;;;5111622;28;20219;-74
2021/11/16 01:28:31;;;;;;;65.60;30.60;;;5.50;99.90;;;;;;5111603;28;20197;-74
2021/11/16 01:31:01;;;;;;;72.83;31.80;;;5.50;99.90;;;;;;5112133;28;20201;-74
2021/11/16 01:33:39;;;;;;;72.50;32.87;;;5.40;99.90;;;;;;5111208;28;20624;-74
2021/11/16 01:36:06;;;;;;;71.47;31.43;;;5.50;99.90;;;;;;5112106;28;20249;-74
2021/11/16 01:38:34;;;;;;;70.37;32.90;;;5.50;99.90;;;;;;5110362;28;20204;-74
2021/11/16 01:41:01;;;;;;;69.80;33.27;;;5.50;99.90;;;;;;5111786;28;20201;-74
2021/11/16 01:43:29;;;;;;;70.63;31.90;;;5.50;99.90;;;;;;5111837;28;20203;-74
2021/11/16 01:45:56;;;;;;;71.87;31.60;;;5.50;99.90;;;;;;5111244;28;20201;-74
2021/11/16 01:48:24;;;;;;;70.50;31.10;;;5.50;99.90;;;;;;5110796;28;20215;-74
2021/11/16 01:50:51;;;;;;;78.90;32.97;;;5.50;99.90;;;;;;5112353;28;20201;-71
2021/11/16 01:53:18;;;;;;;68.20;31.37;;;5.50;99.90;;;;;;5108266;28;20237;-72
2021/11/16 01:55:45;;;;;;;66.77;30.37;;;5.60;99.90;;;;;;5110447;28;20208;-72
2021/11/16 01:58:12;;;;;;;76.27;32.83;;;5.50;99.90;;;;;;5110718;28;20197;-72
2021/11/16 02:00:42;;;;;;;79.57;35.80;;;5.40;99.90;;;;;;5111758;28;20208;-72
2021/11/16 02:03:11;;;;;;;71.93;31.90;;;5.40;99.90;;;;;;5112033;28;20199;-72
2021/11/16 02:05:43;;;;;;;75.10;32.67;;;5.40;99.90;;;;;;5110630;28;20201;-72
2021/11/16 02:08:12;;;;;;;78.13;34.70;;;5.50;99.90;;;;;;5113554;28;20566;-72
2021/11/16 02:10:41;;;;;;;80.63;34.70;;;5.50;99.90;;;;;;5116012;28;20199;-71
2021/11/16 02:13:08;;;;;;;78.53;32.90;;;5.50;99.90;;;;;;5114964;28;20227;-71
2021/11/16 02:15:37;;;;;;;74.67;32.93;;;5.40;99.90;;;;;;5115508;28;20197;-72
2021/11/16 02:18:06;;;;;;;78.47;33.60;;;5.50;99.90;;;;;;5114591;28;20216;-72
2021/11/16 02:20:35;;;;;;;73.10;34.17;;;5.40;99.90;;;;;;5112038;28;20639;-72
2021/11/16 02:23:02;;;;;;;81.60;32.80;;;5.40;99.90;;;;;;5115883;28;20608;-71
2021/11/16 02:25:29;;;;;;;75.80;33.33;;;5.40;99.90;;;;;;5115938;28;20197;-72
2021/11/16 02:27:56;;;;;;;84.17;34.53;;;5.40;99.90;;;;;;5113899;28;20639;-72
2021/11/16 02:30:24;;;;;;;74.60;33.20;;;5.40;99.90;;;;;;5116071;28;20208;-72
2021/11/16 02:32:51;;;;;;;84.80;35.60;;;5.50;99.90;;;;;;5112667;28;20774;-72
2021/11/16 02:35:20;;;;;;;73.33;32.60;;;5.50;99.90;;;;;;5095195;28;20260;-72
2021/11/16 02:37:49;;;;;;;74.07;32.63;;;5.40;99.90;;;;;;5102525;28;20208;-72
2021/11/16 02:40:16;;;;;;;76.33;32.70;;;5.40;99.90;;;;;;5115020;28;20205;-72
2021/11/16 02:42:44;;;;;;;74.03;33.47;;;5.40;99.90;;;;;;5114747;28;20312;-72
2021/11/16 02:45:12;;;;;;;69.87;31.07;;;5.50;99.90;;;;;;5114895;28;20545;-72
2021/11/16 02:47:39;;;;;;;72.87;33.33;;;5.50;99.90;;;;;;5113215;28;20294;-72
2021/11/16 02:50:08;;;;;;;71.90;32.27;;;5.40;99.90;;;;;;5115333;28;20197;-72
2021/11/16 02:52:35;;;;;;;74.17;32.57;;;5.50;99.90;;;;;;5114429;28;20590;-72
2021/11/16 02:55:03;;;;;;;75.30;32.53;;;5.40;99.90;;;;;;5097743;28;20202;-72
2021/11/16 02:57:30;;;;;;;67.40;30.43;;;5.40;99.90;;;;;;5105296;28;20197;-72
2021/11/16 02:59:57;;;;;;;74.40;30.17;;;5.40;99.90;;;;;;5114415;28;20672;-72
2021/11/16 03:02:24;;;;;;;72.13;31.20;;;5.40;99.90;;;;;;5114666;28;20668;-72
2021/11/16 03:04:52;;;;;;;73.33;32.30;;;5.40;99.90;;;;;;5114558;28;20197;-72
2021/11/16 03:07:31;;;;;;;77.50;31.17;;;5.40;99.90;;;;;;5113934;28;20255;-72
2021/11/16 03:09:59;;;;;;;74.10;31.90;;;5.40;99.90;;;;;;5114436;28;20208;-71
2021/11/16 03:12:28;;;;;;;79.30;31.20;;;5.40;99.90;;;;;;5114438;28;20213;-72
2021/11/16 03:14:55;;;;;;;75.10;32.23;;;5.40;99.90;;;;;;5114449;28;20205;-71
2021/11/16 03:17:22;;;;;;;71.53;32.07;;;5.40;99.90;;;;;;5113319;28;20201;-71
2021/11/16 03:19:50;;;;;;;76.73;31.77;;;5.30;99.90;;;;;;5113235;28;20228;-71
2021/11/16 03:22:17;;;;;;;75.07;32.83;;;5.40;99.90;;;;;;5114259;28;20438;-72
2021/11/16 03:24:44;;;;;;;72.77;32.07;;;5.40;99.90;;;;;;5111372;28;20299;-71
2021/11/16 03:27:15;;;;;;;81.37;33.17;;;5.30;99.90;;;;;;5112706;28;20189;-72
2021/11/16 03:29:47;;;;;;;76.60;33.70;;;5.40;99.90;;;;;;5114126;28;20209;-72
2021/11/16 03:32:17;;;;;;;74.37;32.07;;;5.40;99.90;;;;;;5111461;28;20269;-72
2021/11/16 03:34:45;;;;;;;82.40;34.73;;;5.30;99.90;;;;;;5103241;28;20202;-72
2021/11/16 03:37:12;;;;;;;83.07;34.30;;;5.40;99.90;;;;;;5101872;28;20553;-72
2021/11/16 03:39:40;;;;;;;75.47;33.77;;;5.40;99.90;;;;;;5113465;28;20316;-72
2021/11/16 03:42:08;;;;;;;69.33;31.57;;;5.50;99.90;;;;;;5114198;28;20185;-72
2021/11/16 03:44:35;;;;;;;74.43;31.13;;;5.50;99.90;;;;;;5108128;28;20598;-72
2021/11/16 03:47:07;;;;;;;71.60;32.03;;;5.40;99.90;;;;;;5113789;28;20201;-72
2021/11/16 03:49:34;;;;;;;70.90;31.67;;;5.40;99.90;;;;;;5112382;28;20258;-69
2021/11/16 03:52:01;;;;;;;77.17;33.90;;;5.40;99.90;;;;;;5113301;28;20217;-69
2021/11/16 03:54:28;;;;;;;74.47;32.47;;;5.40;99.90;;;;;;5112771;28;20200;-69
2021/11/16 03:57:00;;;;;;;71.07;30.57;;;5.40;99.90;;;;;;5114006;28;20715;-69
2021/11/16 03:59:28;;;;;;;73.13;32.73;;;5.40;99.90;;;;;;5112594;28;20197;-69
2021/11/16 04:01:55;;;;;;;74.07;31.10;;;5.40;99.90;;;;;;5113196;28;20209;-69
2021/11/16 04:04:24;;;;;;;70.73;32.10;;;5.40;99.90;;;;;;5107188;28;20254;-69
2021/11/16 04:06:51;;;;;;;70.87;30.00;;;5.40;99.90;;;;;;5113426;28;20204;-68
2021/11/16 04:09:18;;;;;;;73.17;32.03;;;5.40;99.90;;;;;;5111959;28;20189;-68
2021/11/16 04:11:45;;;;;;;69.63;31.70;;;5.30;99.90;;;;;;5113077;28;20197;-69
2021/11/16 04:14:12;;;;;;;67.07;31.17;;;5.30;99.90;;;;;;5112655;28;20200;-69
2021/11/16 04:16:39;;;;;;;71.97;31.00;;;5.40;99.90;;;;;;5112708;28;20224;-68
2021/11/16 04:19:06;;;;;;;70.83;30.53;;;5.30;99.90;;;;;;5111270;28;20259;-69
2021/11/16 04:21:35;;;;;;;76.47;32.13;;;5.40;99.90;;;;;;5112955;28;20219;-69
2021/11/16 04:24:02;;;;;;;73.40;30.33;;;5.40;99.90;;;;;;5113163;28;20222;-69
2021/11/16 04:26:29;;;;;;;68.50;31.23;;;5.40;99.90;;;;;;5112634;28;20595;-68
2021/11/16 04:28:56;;;;;;;69.10;30.07;;;5.50;99.90;;;;;;5112410;28;20200;-68
2021/11/16 04:31:23;;;;;;;70.73;32.50;;;5.40;99.90;;;;;;5110867;28;20242;-68
2021/11/16 04:33:50;;;;;;;70.67;29.97;;;5.40;99.90;;;;;;5105272;28;20289;-68
2021/11/16 04:36:18;;;;;;;66.77;30.07;;;5.40;99.90;;;;;;5112583;28;20250;-68
2021/11/16 04:38:47;;;;;;;70.57;29.80;;;5.40;99.90;;;;;;5104954;28;20571;-74
2021/11/16 04:41:14;;;;;;;69.53;29.00;;;5.40;99.90;;;;;;5092232;28;20201;-68
2021/11/16 04:43:41;;;;;;;70.67;30.67;;;5.40;99.90;;;;;;5111345;28;20238;-68
2021/11/16 04:46:09;;;;;;;74.43;29.93;;;5.40;99.90;;;;;;5112136;28;20204;-68
2021/11/16 05:02:37;;;;;;;76.37;29.87;;;5.40;99.90;;;;;;5095536;28;20193;-68
2021/11/16 05:05:08;;;;;;;76.97;30.30;;;5.40;99.90;;;;;;5112087;28;20205;-68
2021/11/16 05:07:35;;;;;;;68.77;30.07;;;5.40;99.90;;;;;;5098619;28;20285;-68
2021/11/16 05:10:07;;;;;;;64.83;30.30;;;5.40;99.90;;;;;;5104678;28;20240;-68
2021/11/16 05:12:34;;;;;;;69.50;29.60;;;5.40;99.90;;;;;;5110346;28;20217;-68
2021/11/16 05:15:06;;;;;;;63.97;28.30;;;5.40;99.90;;;;;;5093114;28;20216;-68
2021/11/16 05:17:33;;;;;;;68.97;31.17;;;5.40;99.90;;;;;;5099748;28;20205;-68
2021/11/16 05:20:00;;;;;;;72.33;31.07;;;5.40;99.90;;;;;;5093943;28;20202;-69
2021/11/16 05:22:27;;;;;;;72.70;31.10;;;5.40;99.90;;;;;;5105458;28;20197;-68
2021/11/16 05:24:54;;;;;;;78.43;32.53;;;5.40;99.90;;;;;;5097481;28;20250;-68
2021/11/16 05:27:22;;;;;;;76.13;32.07;;;5.40;99.90;;;;;;5109977;28;20193;-68
2021/11/16 05:29:49;;;;;;;74.23;30.93;;;5.40;99.90;;;;;;5111160;28;20197;-68
2021/11/16 05:32:16;;;;;;;80.27;32.47;;;5.40;99.90;;;;;;5110481;28;20197;-68
2021/11/16 05:34:43;;;;;;;76.13;32.27;;;5.40;99.90;;;;;;5110420;28;20573;-68
2021/11/16 05:37:11;;;;;;;72.67;31.07;;;5.40;99.90;;;;;;5091504;28;20206;-68
2021/11/16 05:39:38;;;;;;;75.27;33.10;;;5.40;99.90;;;;;;5095311;28;20209;-68
2021/11/16 05:42:05;;;;;;;68.80;30.90;;;5.40;99.90;;;;;;5112050;28;20227;-68
2021/11/16 05:44:34;;;;;;;73.73;31.73;;;5.40;99.90;;;;;;5115125;28;20696;-68
2021/11/16 05:47:02;;;;;;;70.57;29.83;;;5.40;99.90;;;;;;5115314;28;20213;-68
2021/11/16 05:49:31;;;;;;;73.67;30.37;;;5.40;99.90;;;;;;5108754;28;20596;-68
2021/11/16 05:52:00;;;;;;;64.70;29.30;;;5.40;99.90;;;;;;5115359;28;20204;-68
2021/11/16 05:54:31;;;;;;;65.23;28.93;;;5.40;99.90;;;;;;5114630;28;20216;-68
2021/11/16 05:56:59;;;;;;;68.97;30.27;;;5.50;99.90;;;;;;5115618;28;20228;-68
2021/11/16 05:59:32;;;;;;;63.73;27.53;;;5.40;99.90;;;;;;5110545;28;20209;-68
2021/11/16 06:02:02;;;;;;;64.07;27.33;;;5.40;99.90;;;;;;5114235;28;20561;-68
2021/11/16 06:04:29;;;;;;;64.03;28.60;;;5.30;99.90;;;;;;5113562;28;20683;-69
2021/11/16 06:06:56;;;;;;;66.53;27.93;;;5.40;99.90;;;;;;5114596;28;20258;-69
2021/11/16 06:09:26;;;;;;;71.40;32.87;;;5.40;99.90;;;;;;5113553;28;20193;-68
2021/11/16 06:11:53;;;;;;;71.30;29.13;;;5.30;99.90;;;;;;5115614;28;20196;-68
2021/11/16 06:14:20;;;;;;;71.03;28.30;;;5.40;99.90;;;;;;5114224;28;20225;-69
2021/11/16 06:16:47;;;;;;;64.77;29.23;;;5.40;99.90;;;;;;5115100;28;20224;-68
2021/11/16 06:19:17;;;;;;;69.37;28.60;;;5.30;99.90;;;;;;5102713;28;20592;-68
2021/11/16 06:21:44;;;;;;;69.57;28.40;;;5.40;99.90;;;;;;5097101;28;20197;-68
2021/11/16 06:24:12;;;;;;;65.13;30.07;;;5.40;99.90;;;;;;5113817;28;20255;-68
2021/11/16 06:26:39;;;;;;;62.33;26.33;;;5.40;99.90;;;;;;5112946;28;20193;-68
2021/11/16 06:29:07;;;;;;;67.13;29.30;;;5.40;99.90;;;;;;5096502;28;20237;-68
2021/11/16 06:31:35;;;;;;;63.53;28.57;;;5.40;99.90;;;;;;5113735;28;20257;-69
2021/11/16 06:34:03;;;;;;;63.97;28.97;;;5.50;99.90;;;;;;5114177;28;20228;-69
2021/11/16 06:36:35;;;;;;;65.60;27.87;;;5.50;99.90;;;;;;5115510;28;20659;-68
2021/11/16 06:39:05;;;;;;;60.93;28.40;;;5.50;99.90;;;;;;5109638;28;20204;-68
2021/11/16 06:41:32;;;;;;;70.53;30.03;;;5.50;99.90;;;;;;5094619;28;20251;-68
2021/11/16 06:43:59;;;;;;;65.73;28.30;;;5.40;99.90;;;;;;5097892;28;20272;-68
2021/11/16 06:46:26;;;;;;;66.07;30.27;;;5.30;99.90;;;;;;5114848;28;20236;-68
2021/11/16 06:48:54;;;;;;;71.03;29.17;;;5.40;99.90;;;;;;5106006;28;20272;-68
2021/11/16 06:51:21;;;;;;;66.00;27.97;;;5.40;99.90;;;;;;5115094;28;20251;-68
2021/11/16 06:53:49;;;;;;;65.80;29.50;;;5.50;99.90;;;;;;5106878;27;20274;-69
2021/11/16 06:56:16;;;;;;;62.37;28.40;;;5.50;99.90;;;;;;5115000;28;20204;-68
2021/11/16 06:58:43;;;;;;;62.87;27.90;;;5.40;99.90;;;;;;5113284;28;20193;-68
2021/11/16 07:01:10;;;;;;;60.17;26.33;;;5.40;99.90;;;;;;5097468;28;20659;-69
2021/11/16 07:03:37;;;;;;;59.17;27.90;;;5.50;99.90;;;;;;5093289;28;20241;-68
2021/11/16 07:06:05;;;;;;;66.57;26.70;;;5.50;99.90;;;;;;5111031;28;20232;-68
2021/11/16 07:08:38;;;;;;;71.13;28.97;;;5.40;99.90;;;;;;5113485;28;20527;-68
2021/11/16 07:11:12;;;;;;;72.47;29.37;;;5.40;99.90;;;;;;5114326;28;20205;-68
2021/11/16 07:14:01;;;;;;;71.47;29.80;;;5.40;99.90;;;;;;5105386;28;20235;-68
2021/11/16 07:16:32;;;;;;;71.27;30.67;;;5.30;99.90;;;;;;5094727;28;20194;-68
2021/11/16 07:19:01;;;;;;;69.77;28.83;;;5.40;99.90;;;;;;5092655;28;20212;-69
2021/11/16 07:21:41;;;;;;;61.77;27.83;;;5.40;99.90;;;;;;5112523;28;20211;-68
2021/11/16 07:24:12;;;;;;;65.13;26.83;;;5.30;99.90;;;;;;5094186;28;20237;-68
2021/11/16 07:26:42;;;;;;;63.37;25.87;;;5.40;99.90;;;;;;5107380;28;20250;-68
2021/11/16 07:29:11;;;;;;;65.40;28.43;;;5.40;99.90;;;;;;5113189;28;20201;-68
2021/11/16 07:31:41;;;;;;;65.83;27.43;;;5.40;99.90;;;;;;5114150;28;20205;-68
2021/11/16 07:34:15;;;;;;;66.27;27.97;;;5.40;99.90;;;;;;5101417;28;20251;-68
2021/11/16 07:36:53;;;;;;;65.33;26.77;;;5.40;99.90;;;;;;5091973;28;20232;-68
2021/11/16 07:39:20;;;;;;;64.23;26.80;;;5.40;99.90;;;;;;5103928;28;20205;-68
2021/11/16 07:41:49;;;;;;;65.70;25.57;;;5.40;99.90;;;;;;5114191;28;20654;-68
2021/11/16 07:44:16;;;;;;;59.90;26.83;;;5.30;99.90;;;;;;5112665;28;20288;-68
2021/11/16 07:46:53;;;;;;;62.57;26.30;;;5.40;99.90;;;;;;5113480;28;20209;-69
2021/11/16 07:49:21;;;;;;;66.90;28.57;;;5.40;99.90;;;;;;5101912;28;20673;-69
2021/11/16 07:51:48;;;;;;;62.07;26.47;;;5.40;99.90;;;;;;5113636;28;20197;-68
2021/11/16 07:54:21;;;;;;;67.63;26.53;;;5.50;99.90;;;;;;5112283;28;20252;-69
2021/11/16 07:56:50;;;;;;;61.27;27.93;;;5.50;99.90;;;;;;5113772;28;20201;-68
2021/11/16 07:59:18;;;;;;;69.27;28.70;;;5.50;99.90;;;;;;5111091;28;20193;-69
2021/11/16 08:01:56;;;;;;;62.33;27.07;;;5.50;99.90;;;;;;5107892;28;20193;-69
2021/11/16 08:04:27;;;;;;;62.20;27.43;;;5.40;99.90;;;;;;5112497;28;20201;-68
2021/11/16 08:07:02;;;;;;;59.40;25.70;;;5.50;99.90;;;;;;5113526;28;20643;-68
2021/11/16 08:09:40;;;;;;;52.23;24.23;;;5.60;99.90;;;;;;5111951;28;20215;-74
2021/11/16 08:12:22;;;;;;;58.07;24.57;;;5.50;99.90;;;;;;5113378;28;20205;-75
2021/11/16 08:14:57;;;;;;;53.90;23.57;;;5.60;99.90;;;;;;5112978;28;20228;-74
2021/11/16 08:17:25;;;;;;;51.10;22.83;;;5.60;99.90;;;;;;5112556;28;20253;-74
2021/11/16 08:19:58;;;;;;;48.40;23.00;;;5.60;99.90;;;;;;5112988;28;20620;-75
2021/11/16 08:22:25;;;;;;;51.27;23.17;;;5.60;99.90;;;;;;5112575;28;20211;-74
2021/11/16 08:24:54;;;;;;;50.70;23.17;;;5.60;99.90;;;;;;5113347;28;20652;-74
2021/11/16 08:27:24;;;;;;;48.40;20.33;;;5.70;99.90;;;;;;5111214;28;20269;-74
2021/11/16 08:29:58;;;;;;;50.00;22.63;;;5.60;99.90;;;;;;5112888;28;20258;-74
2021/11/16 08:32:33;;;;;;;47.40;21.80;;;5.60;99.90;;;;;;5112745;28;20238;-74
2021/11/16 08:35:01;;;;;;;52.13;24.47;;;5.70;99.90;;;;;;5102363;28;20225;-74
2021/11/16 08:37:35;;;;;;;48.63;22.53;;;5.70;99.90;;;;;;5111963;28;20197;-74
2021/11/16 08:40:06;;;;;;;54.83;24.47;;;5.70;99.90;;;;;;5112523;28;20782;-75
2021/11/16 08:42:36;;;;;;;57.47;25.07;;;5.60;99.90;;;;;;5112064;28;20611;-75
2021/11/16 08:45:07;;;;;;;59.30;26.87;;;5.60;99.90;;;;;;5112549;28;20706;-74
2021/11/16 08:47:36;;;;;;;57.53;25.97;;;5.60;99.90;;;;;;5111460;28;20252;-74
2021/11/16 08:50:05;;;;;;;56.13;25.63;;;5.60;99.90;;;;;;5112167;28;20228;-74
2021/11/16 08:52:32;;;;;;;60.40;25.10;;;5.60;99.90;;;;;;5112527;28;20204;-74
2021/11/16 08:55:02;;;;;;;48.93;22.83;;;5.60;99.90;;;;;;5111500;28;20224;-74
2021/11/16 08:57:32;;;;;;;53.53;24.63;;;5.50;99.90;;;;;;5111828;28;20205;-74
2021/11/16 09:00:00;;;;;;;56.47;26.93;;;5.50;99.90;;;;;;5111513;28;20205;-74
2021/11/16 09:02:30;;;;;;;55.07;24.50;;;5.50;99.90;;;;;;5098231;28;20201;-74
2021/11/16 09:05:08;;;;;;;59.43;25.10;;;5.50;99.90;;;;;;5106041;28;20226;-74
2021/11/16 09:07:35;;;;;;;58.77;25.13;;;5.50;99.90;;;;;;5100701;28;20238;-74
2021/11/16 09:10:07;;;;;;;53.80;24.30;;;5.60;99.90;;;;;;5111672;28;20209;-74
2021/11/16 09:12:44;;;;;;;57.23;25.47;;;5.60;99.90;;;;;;5111915;28;20263;-74
2021/11/16 09:15:19;;;;;;;56.20;24.00;;;5.70;99.90;;;;;;5110658;28;20221;-74
2021/11/16 09:17:47;;;;;;;62.60;26.47;;;5.70;99.90;;;;;;5111112;28;20266;-74
2021/11/16 09:20:27;;;;;;;52.27;23.53;;;5.80;99.90;;;;;;5110805;28;20221;-74
2021/11/16 09:22:55;;;;;;;55.10;23.47;;;5.70;99.90;;;;;;5092224;28;20239;-74
2021/11/16 09:25:29;;;;;;;52.07;23.10;;;5.70;99.90;;;;;;5108361;28;20245;-74
2021/11/16 09:28:05;;;;;;;55.47;24.57;;;5.70;99.90;;;;;;5111627;28;20205;-74
2021/11/16 09:30:41;;;;;;;54.20;23.03;;;5.60;99.90;;;;;;5111994;28;20196;-74
2021/11/16 09:33:12;;;;;;;54.90;24.03;;;5.70;99.90;;;;;;5109778;28;20200;-74
2021/11/16 09:35:51;;;;;;;52.07;23.57;;;5.70;99.90;;;;;;5111813;28;20229;-74
2021/11/16 09:38:46;;;;;;;49.43;21.80;;;5.70;99.90;;;;;;5110568;28;20209;-74
2021/11/16 09:41:16;;;;;;;52.27;24.43;;;5.70;99.90;;;;;;5110432;28;20208;-75
2021/11/16 09:43:43;;;;;;;49.10;23.00;;;5.60;99.90;;;;;;5111658;28;20201;-74
2021/11/16 09:46:17;;;;;;;55.20;24.10;;;5.60;99.90;;;;;;5110314;28;20197;-75
2021/11/16 09:48:45;;;;;;;50.80;23.63;;;5.70;99.90;;;;;;5111454;28;20242;-74
2021/11/16 09:51:18;;;;;;;49.57;23.87;;;5.80;99.90;;;;;;5110896;28;20259;-74
2021/11/16 09:53:45;;;;;;;56.20;25.00;;;5.80;99.90;;;;;;5109407;28;20204;-74
2021/11/16 09:56:24;;;;;;;52.17;23.90;;;5.90;99.90;;;;;;5104832;28;20708;-74
2021/11/16 09:58:52;;;;;;;54.70;25.03;;;5.90;99.90;;;;;;5090496;28;20204;-74
2021/11/16 10:01:32;;;;;;;58.00;23.60;;;5.90;99.90;;;;;;5104760;28;20213;-74
2021/11/16 10:04:16;;;;;;;50.67;23.33;;;5.70;99.90;;;;;;5102455;28;20292;-74
2021/11/16 10:06:44;;;;;;;55.27;23.37;;;5.60;99.90;;;;;;5104568;28;20258;-74
2021/11/16 10:09:12;;;;;;;51.43;22.80;;;5.70;99.90;;;;;;5104476;28;20246;-74
2021/11/16 10:11:44;;;;;;;58.17;24.13;;;5.70;99.90;;;;;;5104553;28;20215;-74
2021/11/16 10:14:17;;;;;;;53.60;23.00;;;5.60;99.90;;;;;;5109202;28;20221;-74
2021/11/16 10:16:47;;;;;;;52.47;22.33;;;5.70;99.90;;;;;;5106104;28;20217;-74
2021/11/16 10:19:15;;;;;;;52.40;23.73;;;5.70;99.90;;;;;;5090555;28;20628;-74
2021/11/16 10:21:42;;;;;;;56.27;23.37;;;5.70;99.90;;;;;;5091332;28;20685;-74
2021/11/16 10:24:30;;;;;;;52.73;22.53;;;5.70;99.90;;;;;;5111503;28;20262;-75
2021/11/16 10:27:01;;;;;;;56.03;24.37;;;5.70;99.90;;;;;;5111519;28;20231;-74
2021/11/16 10:29:29;;;;;;;57.03;23.50;;;5.60;99.90;;;;;;5114777;28;20242;-74
2021/11/16 10:31:58;;;;;;;50.60;22.13;;;5.50;99.90;;;;;;5113920;28;20283;-74
2021/11/16 10:34:40;;;;;;;51.57;22.93;;;5.50;99.90;;;;;;5114313;28;20681;-74
2021/11/16 10:37:08;;;;;;;51.47;20.93;;;5.70;99.90;;;;;;5113652;28;20722;-74
2021/11/16 10:39:35;;;;;;;54.80;22.43;;;5.70;99.90;;;;;;5114871;28;20205;-74
2021/11/16 10:42:06;;;;;;;53.13;23.37;;;5.80;99.90;;;;;;5107812;28;20206;-74
2021/11/16 10:44:37;;;;;;;48.10;21.83;;;5.80;99.90;;;;;;5107274;28;20232;-74
2021/11/16 10:47:08;;;;;;;52.30;23.10;;;5.70;99.90;;;;;;5113699;28;20225;-74
2021/11/16 10:49:35;;;;;;;52.60;21.77;;;5.80;99.90;;;;;;5114529;28;20262;-74
2021/11/16 10:52:02;;;;;;;50.87;22.47;;;5.70;99.90;;;;;;5114225;28;20197;-74
2021/11/16 10:54:29;;;;;;;51.30;21.97;;;5.80;99.90;;;;;;5114947;28;20221;-74
2021/11/16 10:57:04;;;;;;;51.97;21.50;;;5.70;99.90;;;;;;5113142;28;20205;-74
2021/11/16 10:59:35;;;;;;;50.77;20.50;;;5.70;99.90;;;;;;5110836;28;20245;-75
2021/11/16 11:02:02;;;;;;;44.97;19.23;;;5.70;99.90;;;;;;5108562;28;20244;-74
2021/11/16 11:04:39;;;;;;;49.73;20.97;;;5.70;99.90;;;;;;5097309;28;20278;-74
2021/11/16 11:07:11;;;;;;;48.17;21.07;;;5.70;99.90;;;;;;5106990;28;20213;-74
2021/11/16 11:09:38;;;;;;;45.33;19.63;;;5.70;99.90;;;;;;5098877;28;20204;-74
2021/11/16 11:12:20;;;;;;;45.37;19.33;;;5.80;99.90;;;;;;5112182;28;20204;-74
2021/11/16 11:14:50;;;;;;;40.87;18.30;;;5.80;99.90;;;;;;5112862;28;20212;-74
2021/11/16 11:17:17;;;;;;;40.63;18.83;;;5.80;99.90;;;;;;5104276;28;20214;-74
2021/11/16 11:19:46;;;;;;;41.97;18.37;;;5.80;99.90;;;;;;5105619;28;20204;-74
2021/11/16 11:22:19;;;;;;;41.10;18.00;;;5.80;99.90;;;;;;5101241;28;20220;-74
2021/11/16 11:24:51;;;;;;;42.47;19.33;;;5.80;99.90;;;;;;5111625;28;20244;-74
2021/11/16 11:27:30;;;;;;;42.53;19.13;;;5.70;99.90;;;;;;5106178;28;20250;-74
2021/11/16 11:29:59;;;;;;;42.00;19.37;;;5.80;99.90;;;;;;5107380;28;20208;-74
2021/11/16 11:32:28;;;;;;;44.50;19.77;;;5.80;99.90;;;;;;5105499;28;20209;-74
2021/11/16 11:35:00;;;;;;;40.03;16.90;;;5.70;99.90;;;;;;5107555;28;20679;-74
2021/11/16 11:37:28;;;;;;;43.87;18.97;;;5.70;99.90;;;;;;5109713;28;20200;-74
2021/11/16 11:40:00;;;;;;;43.33;20.33;;;5.80;99.90;;;;;;5106466;28;20201;-72
2021/11/16 11:42:28;;;;;;;42.83;19.07;;;5.80;99.90;;;;;;5100861;28;20234;-72
2021/11/16 11:45:07;;;;;;;40.30;16.80;;;5.80;99.90;;;;;;5111261;28;20201;-72
2021/11/16 11:47:35;;;;;;;38.83;18.80;;;5.70;99.90;;;;;;5108044;28;20641;-72
2021/11/16 11:50:20;;;;;;;32.77;16.13;;;5.80;99.90;;;;;;5106633;28;20193;-72
2021/11/16 11:52:48;;;;;;;39.27;16.93;;;5.80;99.90;;;;;;5100443;28;20689;-72
2021/11/16 11:55:16;;;;;;;36.83;17.03;;;5.80;99.90;;;;;;5109084;28;20233;-72
2021/11/16 11:57:43;;;;;;;35.30;17.00;;;5.90;99.90;;;;;;5111309;28;20254;-72
2021/11/16 12:00:12;;;;;;;34.07;15.30;;;5.90;99.90;;;;;;5112751;28;20257;-72
2021/11/16 12:02:40;;;;;;;32.23;15.70;;;5.80;99.90;;;;;;5106764;28;20197;-72
2021/11/16 12:05:09;;;;;;;31.43;14.63;;;5.70;99.90;;;;;;5102766;28;20605;-72
2021/11/16 12:07:36;;;;;;;31.00;15.07;;;5.80;99.90;;;;;;5103409;28;20211;-72
2021/11/16 12:10:05;;;;;;;30.73;15.03;;;5.80;99.90;;;;;;5109773;28;20600;-72
2021/11/16 12:12:32;;;;;;;32.33;15.20;;;5.70;99.90;;;;;;5101526;28;20200;-73
2021/11/16 12:15:04;;;;;;;32.27;16.13;;;5.70;99.90;;;;;;5106573;28;20213;-72
2021/11/16 12:17:35;;;;;;;33.13;15.93;;;5.70;99.90;;;;;;5111837;28;20208;-72
2021/11/16 12:20:04;;;;;;;31.73;15.03;;;5.70;99.90;;;;;;5109962;28;20201;-72
2021/11/16 12:22:34;;;;;;;31.60;15.40;;;5.60;99.90;;;;;;5110406;28;20265;-72
2021/11/16 12:25:18;;;;;;;32.30;14.90;;;5.70;99.90;;;;;;5104841;28;20202;-72
2021/11/16 12:27:46;;;;;;;32.67;15.60;;;5.60;99.90;;;;;;5103871;28;20632;-72
2021/11/16 12:30:13;;;;;;;32.37;15.37;;;5.60;99.90;;;;;;5110010;28;20201;-72
2021/11/16 12:32:50;;;;;;;32.70;15.20;;;5.70;99.90;;;;;;5105901;28;20254;-72
2021/11/16 12:35:20;;;;;;;29.67;14.40;;;5.70;99.90;;;;;;5110529;28;20259;-72
2021/11/16 12:37:50;;;;;;;29.10;15.27;;;5.70;99.90;;;;;;5112153;28;20213;-72
2021/11/16 12:40:22;;;;;;;30.07;14.43;;;5.60;99.90;;;;;;5110245;28;20205;-72
2021/11/16 12:43:18;;;;;;;29.27;13.93;;;5.70;99.90;;;;;;5108844;28;20197;-72
2021/11/16 12:45:48;;;;;;;29.63;14.90;;;5.80;99.90;;;;;;5106514;28;20714;-71
2021/11/16 12:48:17;;;;;;;28.10;13.97;;;5.80;99.90;;;;;;5109865;28;20213;-72
2021/11/16 12:51:13;;;;;;;28.03;15.20;;;5.80;99.90;;;;;;5107087;28;20205;-71
2021/11/16 12:53:58;;;;;;;30.17;14.10;;;5.70;99.90;;;;;;5101461;28;20205;-71
2021/11/16 12:57:05;;;;;;;30.10;14.60;;;5.90;99.90;;;;;;5104274;28;20319;-72
2021/11/16 12:59:58;;;;;;;30.27;14.03;;;5.80;99.90;;;;;;5107476;28;20207;-72
2021/11/16 13:02:29;;;;;;;29.80;13.57;;;5.90;99.90;;;;;;5110151;28;20197;-72
2021/11/16 13:04:58;;;;;;;27.37;13.40;;;5.70;99.90;;;;;;5107568;28;20240;-72